• Join FlightAware (Why Join?)
  • Login
  • US Flag 
06:58PM EDT


 

Airport Tracker/Info


-or-


 

Live Flight TrackerFlight Track Log ✈ N469S ✈ 25-Apr-2013 ✈ KCPS - KMQJ

Flight Track Log - Related Links

Times and Time Zones

All times are in EDT time to prevent confusion due to time zone crossing. See the N469S flight status page for this flight to view local times or setup timezone preferences in your user account.

Time Position Orientation Groundspeed Altitude Reporting Facility
EDT Latitude Longitude Course Direction KTS MPH feet Rate Location/Type
03:42PM 38.5333 -90.1667 27° Northeast 130 150 2,100  Level Gateway (St. Louis) TRACON
03:43PM 38.5000 -90.1167 130° Southeast 164 189 2,400 120 Climbing Gateway (St. Louis) TRACON
03:44PM 38.4867 -90.1061 148° Southeast 149 171 2,300 600 Descending Kansas City Center
03:46PM 38.5300 -90.0039 62° Northeast 163 188 4,000 540 Climbing Kansas City Center
03:47PM 38.5481 -89.9511 66° East 161 185 4,100 300 Climbing Kansas City Center
03:48PM 38.8558 -89.9406 27° Northeast  Level FlightAware Approximate
03:48PM 38.5686 -89.8914 66° East 171 197 4,700  Level Kansas City Center
03:49PM 38.5872 -89.8375 66° East 172 198 5,600 900 Climbing Kansas City Center
03:50PM 38.6097 -89.7736 66° East 167 192 6,600 840 Climbing Kansas City Center
03:51PM 38.6267 -89.7211 68° East 165 190 7,400 840 Climbing Kansas City Center
03:52PM 38.6464 -89.6614 67° East 163 188 8,400 780 Climbing Kansas City Center
03:53PM 38.6650 -89.6086 66° East 164 189 9,100 660 Climbing Kansas City Center
03:54PM 38.6833 -89.5539 67° East 167 192 9,800 720 Climbing Kansas City Center
03:55PM 38.7033 -89.4931 67° East 171 197 10,600 720 Climbing Kansas City Center
03:56PM 38.7217 -89.4381 67° East 169 194 11,400 720 Climbing Kansas City Center
03:57PM 38.7433 -89.3756 66° East 177 204 12,100 600 Climbing Kansas City Center
03:58PM 38.7636 -89.3144 67° East 184 212 12,700 420 Climbing Kansas City Center
03:59PM 38.7861 -89.2486 66° East 188 216 13,100 180 Climbing Kansas City Center
04:00PM 38.8086 -89.1792 67° East 210 242 13,100  Level Kansas City Center
04:01PM 38.8344 -89.0992 67° East 224 258 13,100  Level Kansas City Center
04:03PM 38.8597 -89.0225 67° East 233 268 13,100  Level Kansas City Center
04:04PM 38.8842 -88.9514 66° East 229 264 13,100  Level Kansas City Center
04:05PM 38.9097 -88.8756 67° East 233 268 13,100  Level Kansas City Center
04:06PM 38.9339 -88.8014 67° East 227 261 13,100  Level Kansas City Center
04:07PM 38.9631 -88.7103 68° East 230 265 13,100  Level Kansas City Center
04:08PM 38.9875 -88.6347 67° East 230 265 13,100  Level Kansas City Center
04:09PM 39.0122 -88.5611 67° East 230 265 13,100  Level Kansas City Center
04:10PM 39.0369 -88.4850 67° East 230 265 13,100  Level Kansas City Center
04:11PM 39.0628 -88.4100 66° East 229 264 13,100  Level Kansas City Center
04:12PM 39.0853 -88.3361 69° East 227 261 13,100  Level Indianapolis Center
04:13PM 39.1097 -88.2597 68° East 229 264 13,100  Level Indianapolis Center
04:14PM 39.1339 -88.1828 68° East 230 265 13,100  Level Indianapolis Center
04:15PM 39.1650 -88.0911 66° East 229 264 13,100  Level Kansas City Center
04:16PM 39.1889 -88.0158 68° East 227 261 13,100  Level Kansas City Center
04:17PM 39.2128 -87.9381 68° East 231 266 13,100  Level Kansas City Center
04:18PM 39.2381 -87.8614 67° East 231 266 13,100  Level Kansas City Center
04:19PM 39.2606 -87.7864 69° East 229 264 13,100  Level Indianapolis Center
04:20PM 39.2853 -87.7119 67° East 227 261 13,100  Level Indianapolis Center
04:21PM 39.3086 -87.6342 69° East 229 264 13,100  Level Indianapolis Center
04:22PM 39.3350 -87.5547 67° East 225 259 13,100  Level Indianapolis Center
04:23PM 39.3583 -87.4769 69° East 229 264 13,100  Level Indianapolis Center
04:24PM 39.3836 -87.4008 67° East 230 265 13,100  Level Indianapolis Center
04:25PM 39.4053 -87.3247 70° East 226 260 13,100 -60 Level Indianapolis Center
04:26PM 39.4300 -87.2475 67° East 229 264 13,000 -360 Descending Indianapolis Center
04:27PM 39.4367 -87.1586 84° East 245 282 12,400 -720 Descending Indianapolis Center
04:28PM 39.4497 -87.0519 81° East 255 293 11,600 -780 Descending Indianapolis Center
04:29PM 39.4628 -86.9622 79° East 253 291 10,900 -720 Descending Indianapolis Center
04:30PM 39.4817 -86.8756 74° East 252 290 10,200 -780 Descending Indianapolis Center
04:31PM 39.5119 -86.7958 64° Northeast 246 283 9,400 -780 Descending Indianapolis Center
04:32PM 39.5417 -86.7175 64° Northeast 243 280 8,700 -840 Descending Indianapolis Center
04:33PM 39.5706 -86.6381 65° Northeast 241 277 7,700 -1,080 Descending Indianapolis Center
04:34PM 39.6039 -86.5492 64° Northeast 236 272 6,500 -900 Descending Indianapolis Center
04:35PM 39.6303 -86.4767 65° Northeast 228 262 5,900 -300 Descending Indianapolis Center
04:36PM 39.6525 -86.4239 61° Northeast 208 239 5,900  Level Indianapolis Center